sensor_id;sensor_type;location;lat;lon;timestamp;P1;durP1;ratioP1;P2;durP2;ratioP2
25231;SDS011;13176;51.140;6.290;2024-03-07T00:02:21;34.00;;;29.35;;
25231;SDS011;13176;51.140;6.290;2024-03-07T00:04:47;34.30;;;30.13;;
25231;SDS011;13176;51.140;6.290;2024-03-07T00:07:14;34.63;;;30.23;;
25231;SDS011;13176;51.140;6.290;2024-03-07T00:09:40;37.42;;;30.35;;
25231;SDS011;13176;51.140;6.290;2024-03-07T00:12:07;35.28;;;30.33;;
25231;SDS011;13176;51.140;6.290;2024-03-07T00:14:34;35.55;;;30.08;;
25231;SDS011;13176;51.140;6.290;2024-03-07T00:17:01;33.53;;;28.85;;
25231;SDS011;13176;51.140;6.290;2024-03-07T00:19:29;33.33;;;28.95;;
25231;SDS011;13176;51.140;6.290;2024-03-07T00:21:56;35.55;;;30.77;;
25231;SDS011;13176;51.140;6.290;2024-03-07T00:24:23;36.33;;;30.25;;
25231;SDS011;13176;51.140;6.290;2024-03-07T00:26:50;37.88;;;31.15;;
25231;SDS011;13176;51.140;6.290;2024-03-07T00:29:18;36.08;;;30.95;;
25231;SDS011;13176;51.140;6.290;2024-03-07T00:31:47;43.55;;;34.60;;
25231;SDS011;13176;51.140;6.290;2024-03-07T00:34:14;40.10;;;33.50;;
25231;SDS011;13176;51.140;6.290;2024-03-07T00:36:50;45.80;;;35.92;;
25231;SDS011;13176;51.140;6.290;2024-03-07T00:39:18;44.13;;;38.28;;
25231;SDS011;13176;51.140;6.290;2024-03-07T00:41:45;46.30;;;39.53;;
25231;SDS011;13176;51.140;6.290;2024-03-07T00:44:12;45.75;;;40.45;;
25231;SDS011;13176;51.140;6.290;2024-03-07T00:46:38;45.90;;;40.67;;
25231;SDS011;13176;51.140;6.290;2024-03-07T00:49:05;46.38;;;39.85;;
25231;SDS011;13176;51.140;6.290;2024-03-07T00:51:31;45.28;;;39.22;;
25231;SDS011;13176;51.140;6.290;2024-03-07T00:53:58;45.63;;;38.67;;
25231;SDS011;13176;51.140;6.290;2024-03-07T00:56:24;44.08;;;37.97;;
25231;SDS011;13176;51.140;6.290;2024-03-07T00:58:51;43.47;;;37.85;;
25231;SDS011;13176;51.140;6.290;2024-03-07T01:01:17;44.78;;;38.40;;
25231;SDS011;13176;51.140;6.290;2024-03-07T01:03:47;43.85;;;36.90;;
25231;SDS011;13176;51.140;6.290;2024-03-07T01:06:13;42.60;;;37.47;;
25231;SDS011;13176;51.140;6.290;2024-03-07T01:08:40;43.88;;;35.28;;
25231;SDS011;13176;51.140;6.290;2024-03-07T01:11:06;41.15;;;35.20;;
25231;SDS011;13176;51.140;6.290;2024-03-07T01:13:37;42.00;;;35.15;;
25231;SDS011;13176;51.140;6.290;2024-03-07T01:16:07;47.60;;;36.13;;
25231;SDS011;13176;51.140;6.290;2024-03-07T01:18:34;45.78;;;36.50;;
25231;SDS011;13176;51.140;6.290;2024-03-07T01:21:01;42.78;;;35.33;;
25231;SDS011;13176;51.140;6.290;2024-03-07T01:23:28;42.85;;;35.80;;
25231;SDS011;13176;51.140;6.290;2024-03-07T01:25:56;44.40;;;36.45;;
25231;SDS011;13176;51.140;6.290;2024-03-07T01:28:23;50.33;;;38.38;;
25231;SDS011;13176;51.140;6.290;2024-03-07T01:30:50;47.55;;;36.47;;
25231;SDS011;13176;51.140;6.290;2024-03-07T01:33:17;42.50;;;36.95;;
25231;SDS011;13176;51.140;6.290;2024-03-07T01:35:43;46.42;;;37.97;;
25231;SDS011;13176;51.140;6.290;2024-03-07T01:38:10;42.13;;;37.47;;
25231;SDS011;13176;51.140;6.290;2024-03-07T01:40:37;46.63;;;38.25;;
25231;SDS011;13176;51.140;6.290;2024-03-07T01:43:03;52.58;;;39.90;;
25231;SDS011;13176;51.140;6.290;2024-03-07T01:45:31;48.45;;;40.15;;
25231;SDS011;13176;51.140;6.290;2024-03-07T01:47:58;52.58;;;37.85;;
25231;SDS011;13176;51.140;6.290;2024-03-07T01:50:25;51.90;;;38.60;;
25231;SDS011;13176;51.140;6.290;2024-03-07T01:52:52;42.60;;;37.63;;
25231;SDS011;13176;51.140;6.290;2024-03-07T01:55:21;47.30;;;38.70;;
25231;SDS011;13176;51.140;6.290;2024-03-07T01:57:49;47.53;;;39.50;;
25231;SDS011;13176;51.140;6.290;2024-03-07T02:00:15;43.88;;;37.53;;
25231;SDS011;13176;51.140;6.290;2024-03-07T02:02:44;49.17;;;37.65;;
25231;SDS011;13176;51.140;6.290;2024-03-07T02:05:11;48.03;;;36.55;;
25231;SDS011;13176;51.140;6.290;2024-03-07T02:07:39;49.90;;;38.70;;
25231;SDS011;13176;51.140;6.290;2024-03-07T02:10:06;47.00;;;38.28;;
25231;SDS011;13176;51.140;6.290;2024-03-07T02:12:35;46.47;;;38.33;;
25231;SDS011;13176;51.140;6.290;2024-03-07T02:15:02;46.13;;;36.47;;
25231;SDS011;13176;51.140;6.290;2024-03-07T02:17:28;48.05;;;38.22;;
25231;SDS011;13176;51.140;6.290;2024-03-07T02:19:55;49.28;;;37.80;;
25231;SDS011;13176;51.140;6.290;2024-03-07T02:22:21;43.60;;;35.88;;
25231;SDS011;13176;51.140;6.290;2024-03-07T02:24:48;44.30;;;36.30;;
25231;SDS011;13176;51.140;6.290;2024-03-07T02:27:14;47.92;;;37.40;;
25231;SDS011;13176;51.140;6.290;2024-03-07T02:29:41;47.85;;;36.65;;
25231;SDS011;13176;51.140;6.290;2024-03-07T02:32:08;47.17;;;37.58;;
25231;SDS011;13176;51.140;6.290;2024-03-07T02:34:35;48.85;;;37.08;;
25231;SDS011;13176;51.140;6.290;2024-03-07T02:37:02;45.13;;;37.10;;
25231;SDS011;13176;51.140;6.290;2024-03-07T02:39:28;48.20;;;37.83;;
25231;SDS011;13176;51.140;6.290;2024-03-07T02:41:55;51.35;;;38.25;;
25231;SDS011;13176;51.140;6.290;2024-03-07T02:44:22;47.80;;;37.58;;
25231;SDS011;13176;51.140;6.290;2024-03-07T02:46:48;51.28;;;37.38;;
25231;SDS011;13176;51.140;6.290;2024-03-07T02:49:14;48.33;;;38.88;;
25231;SDS011;13176;51.140;6.290;2024-03-07T02:51:41;49.60;;;39.97;;
25231;SDS011;13176;51.140;6.290;2024-03-07T02:54:08;47.78;;;42.28;;
25231;SDS011;13176;51.140;6.290;2024-03-07T02:56:34;47.00;;;40.55;;
25231;SDS011;13176;51.140;6.290;2024-03-07T02:59:01;51.42;;;42.92;;
25231;SDS011;13176;51.140;6.290;2024-03-07T03:01:30;49.58;;;40.10;;
25231;SDS011;13176;51.140;6.290;2024-03-07T03:03:56;49.88;;;40.85;;
25231;SDS011;13176;51.140;6.290;2024-03-07T03:06:23;49.55;;;42.63;;
25231;SDS011;13176;51.140;6.290;2024-03-07T03:08:49;45.50;;;39.08;;
25231;SDS011;13176;51.140;6.290;2024-03-07T03:11:16;49.20;;;39.78;;
25231;SDS011;13176;51.140;6.290;2024-03-07T03:13:42;50.15;;;39.28;;
25231;SDS011;13176;51.140;6.290;2024-03-07T03:16:09;50.90;;;40.85;;
25231;SDS011;13176;51.140;6.290;2024-03-07T03:18:36;50.38;;;43.13;;
25231;SDS011;13176;51.140;6.290;2024-03-07T03:21:02;50.10;;;40.78;;
25231;SDS011;13176;51.140;6.290;2024-03-07T03:23:29;45.95;;;40.92;;
25231;SDS011;13176;51.140;6.290;2024-03-07T03:25:56;49.95;;;40.10;;
25231;SDS011;13176;51.140;6.290;2024-03-07T03:28:23;54.28;;;40.97;;
25231;SDS011;13176;51.140;6.290;2024-03-07T03:30:49;48.17;;;41.35;;
25231;SDS011;13176;51.140;6.290;2024-03-07T03:33:19;49.53;;;40.85;;
25231;SDS011;13176;51.140;6.290;2024-03-07T03:35:47;49.65;;;39.60;;
25231;SDS011;13176;51.140;6.290;2024-03-07T03:38:13;50.53;;;41.17;;
25231;SDS011;13176;51.140;6.290;2024-03-07T03:40:40;45.80;;;39.10;;
25231;SDS011;13176;51.140;6.290;2024-03-07T03:43:06;50.13;;;39.38;;
25231;SDS011;13176;51.140;6.290;2024-03-07T03:45:33;48.25;;;39.72;;
25231;SDS011;13176;51.140;6.290;2024-03-07T03:48:00;45.80;;;37.88;;
25231;SDS011;13176;51.140;6.290;2024-03-07T03:50:27;51.72;;;39.35;;
25231;SDS011;13176;51.140;6.290;2024-03-07T03:52:55;47.45;;;39.45;;
25231;SDS011;13176;51.140;6.290;2024-03-07T03:55:21;52.53;;;38.58;;
25231;SDS011;13176;51.140;6.290;2024-03-07T03:57:48;49.53;;;38.10;;
25231;SDS011;13176;51.140;6.290;2024-03-07T04:00:16;47.72;;;39.20;;
25231;SDS011;13176;51.140;6.290;2024-03-07T04:02:44;51.03;;;38.67;;
25231;SDS011;13176;51.140;6.290;2024-03-07T04:05:16;48.15;;;39.20;;
25231;SDS011;13176;51.140;6.290;2024-03-07T04:07:44;47.03;;;40.70;;
25231;SDS011;13176;51.140;6.290;2024-03-07T04:10:11;50.45;;;41.65;;
25231;SDS011;13176;51.140;6.290;2024-03-07T04:12:39;47.60;;;40.67;;
25231;SDS011;13176;51.140;6.290;2024-03-07T04:15:07;50.15;;;40.30;;
25231;SDS011;13176;51.140;6.290;2024-03-07T04:17:35;49.97;;;40.47;;
25231;SDS011;13176;51.140;6.290;2024-03-07T04:20:04;51.78;;;42.30;;
25231;SDS011;13176;51.140;6.290;2024-03-07T04:22:35;48.05;;;41.00;;
25231;SDS011;13176;51.140;6.290;2024-03-07T04:25:02;47.28;;;40.42;;
25231;SDS011;13176;51.140;6.290;2024-03-07T04:27:29;48.38;;;40.33;;
25231;SDS011;13176;51.140;6.290;2024-03-07T04:29:55;43.05;;;38.33;;
25231;SDS011;13176;51.140;6.290;2024-03-07T04:32:22;46.60;;;40.42;;
25231;SDS011;13176;51.140;6.290;2024-03-07T04:34:49;46.50;;;39.03;;
25231;SDS011;13176;51.140;6.290;2024-03-07T04:37:15;49.97;;;39.33;;
25231;SDS011;13176;51.140;6.290;2024-03-07T04:39:42;46.05;;;38.90;;
25231;SDS011;13176;51.140;6.290;2024-03-07T04:42:09;45.78;;;38.63;;
25231;SDS011;13176;51.140;6.290;2024-03-07T04:44:36;47.20;;;39.42;;
25231;SDS011;13176;51.140;6.290;2024-03-07T04:47:03;46.92;;;38.03;;
25231;SDS011;13176;51.140;6.290;2024-03-07T04:49:31;51.17;;;38.72;;
25231;SDS011;13176;51.140;6.290;2024-03-07T04:51:59;47.42;;;36.50;;
25231;SDS011;13176;51.140;6.290;2024-03-07T04:54:28;46.35;;;37.17;;
25231;SDS011;13176;51.140;6.290;2024-03-07T04:56:56;45.45;;;37.33;;
25231;SDS011;13176;51.140;6.290;2024-03-07T04:59:22;42.28;;;37.03;;
25231;SDS011;13176;51.140;6.290;2024-03-07T05:01:49;43.50;;;35.88;;
25231;SDS011;13176;51.140;6.290;2024-03-07T05:04:16;46.40;;;36.83;;
25231;SDS011;13176;51.140;6.290;2024-03-07T05:06:43;46.17;;;38.03;;
25231;SDS011;13176;51.140;6.290;2024-03-07T05:09:11;46.95;;;38.47;;
25231;SDS011;13176;51.140;6.290;2024-03-07T05:11:49;45.53;;;36.35;;
25231;SDS011;13176;51.140;6.290;2024-03-07T05:14:18;44.25;;;37.67;;
25231;SDS011;13176;51.140;6.290;2024-03-07T05:16:45;44.55;;;36.33;;
25231;SDS011;13176;51.140;6.290;2024-03-07T05:19:12;44.42;;;36.20;;
25231;SDS011;13176;51.140;6.290;2024-03-07T05:21:38;42.13;;;35.47;;
25231;SDS011;13176;51.140;6.290;2024-03-07T05:24:07;43.72;;;37.20;;
25231;SDS011;13176;51.140;6.290;2024-03-07T05:26:34;45.75;;;39.15;;
25231;SDS011;13176;51.140;6.290;2024-03-07T05:29:07;43.83;;;39.13;;
25231;SDS011;13176;51.140;6.290;2024-03-07T05:31:35;48.17;;;38.13;;
25231;SDS011;13176;51.140;6.290;2024-03-07T05:34:03;43.50;;;38.70;;
25231;SDS011;13176;51.140;6.290;2024-03-07T05:36:37;43.25;;;37.63;;
25231;SDS011;13176;51.140;6.290;2024-03-07T05:39:15;43.65;;;36.45;;
25231;SDS011;13176;51.140;6.290;2024-03-07T05:41:44;41.70;;;34.97;;
25231;SDS011;13176;51.140;6.290;2024-03-07T05:44:12;41.72;;;37.33;;
25231;SDS011;13176;51.140;6.290;2024-03-07T05:46:39;40.33;;;36.28;;
25231;SDS011;13176;51.140;6.290;2024-03-07T05:51:39;35.88;;;32.17;;
25231;SDS011;13176;51.140;6.290;2024-03-07T05:54:08;38.58;;;34.50;;
25231;SDS011;13176;51.140;6.290;2024-03-07T05:56:35;45.17;;;37.42;;
25231;SDS011;13176;51.140;6.290;2024-03-07T05:59:02;39.90;;;35.78;;
25231;SDS011;13176;51.140;6.290;2024-03-07T06:01:33;45.72;;;37.65;;
25231;SDS011;13176;51.140;6.290;2024-03-07T06:04:00;38.75;;;34.53;;
25231;SDS011;13176;51.140;6.290;2024-03-07T06:06:31;39.35;;;35.42;;
25231;SDS011;13176;51.140;6.290;2024-03-07T06:09:00;41.88;;;37.70;;
25231;SDS011;13176;51.140;6.290;2024-03-07T06:11:33;43.60;;;37.72;;
25231;SDS011;13176;51.140;6.290;2024-03-07T06:14:04;41.50;;;37.45;;
25231;SDS011;13176;51.140;6.290;2024-03-07T06:16:33;46.45;;;41.38;;
25231;SDS011;13176;51.140;6.290;2024-03-07T06:19:05;44.13;;;39.55;;
25231;SDS011;13176;51.140;6.290;2024-03-07T06:21:37;43.90;;;39.40;;
25231;SDS011;13176;51.140;6.290;2024-03-07T06:24:08;46.10;;;41.28;;
25231;SDS011;13176;51.140;6.290;2024-03-07T06:26:37;44.83;;;40.10;;
25231;SDS011;13176;51.140;6.290;2024-03-07T06:29:08;45.70;;;39.03;;
25231;SDS011;13176;51.140;6.290;2024-03-07T06:31:34;46.38;;;41.50;;
25231;SDS011;13176;51.140;6.290;2024-03-07T06:34:01;46.70;;;41.83;;
25231;SDS011;13176;51.140;6.290;2024-03-07T06:36:27;48.00;;;43.03;;
25231;SDS011;13176;51.140;6.290;2024-03-07T06:38:54;49.75;;;44.53;;
25231;SDS011;13176;51.140;6.290;2024-03-07T06:41:20;51.30;;;45.90;;
25231;SDS011;13176;51.140;6.290;2024-03-07T06:43:47;49.92;;;44.53;;
25231;SDS011;13176;51.140;6.290;2024-03-07T06:46:16;49.70;;;44.30;;
25231;SDS011;13176;51.140;6.290;2024-03-07T06:48:42;50.25;;;44.97;;
25231;SDS011;13176;51.140;6.290;2024-03-07T06:51:10;51.22;;;45.30;;
25231;SDS011;13176;51.140;6.290;2024-03-07T06:53:37;52.25;;;44.88;;
25231;SDS011;13176;51.140;6.290;2024-03-07T06:56:03;51.75;;;46.50;;
25231;SDS011;13176;51.140;6.290;2024-03-07T06:58:30;52.83;;;47.38;;
25231;SDS011;13176;51.140;6.290;2024-03-07T07:00:59;54.13;;;47.55;;
25231;SDS011;13176;51.140;6.290;2024-03-07T07:03:27;53.47;;;46.78;;
25231;SDS011;13176;51.140;6.290;2024-03-07T07:05:56;54.35;;;46.65;;
25231;SDS011;13176;51.140;6.290;2024-03-07T07:08:22;53.53;;;46.67;;
25231;SDS011;13176;51.140;6.290;2024-03-07T07:10:49;54.08;;;47.55;;
25231;SDS011;13176;51.140;6.290;2024-03-07T07:13:16;55.58;;;47.20;;
25231;SDS011;13176;51.140;6.290;2024-03-07T07:15:43;55.15;;;49.15;;
25231;SDS011;13176;51.140;6.290;2024-03-07T07:18:09;51.63;;;45.97;;
25231;SDS011;13176;51.140;6.290;2024-03-07T07:20:36;52.92;;;47.22;;
25231;SDS011;13176;51.140;6.290;2024-03-07T07:23:03;54.83;;;48.83;;
25231;SDS011;13176;51.140;6.290;2024-03-07T07:25:30;53.50;;;47.75;;
25231;SDS011;13176;51.140;6.290;2024-03-07T07:27:57;54.05;;;47.08;;
25231;SDS011;13176;51.140;6.290;2024-03-07T07:30:23;52.88;;;47.20;;
25231;SDS011;13176;51.140;6.290;2024-03-07T07:32:50;53.22;;;47.38;;
25231;SDS011;13176;51.140;6.290;2024-03-07T07:35:18;55.15;;;49.30;;
25231;SDS011;13176;51.140;6.290;2024-03-07T07:37:45;56.65;;;48.13;;
25231;SDS011;13176;51.140;6.290;2024-03-07T07:40:18;60.65;;;51.10;;
25231;SDS011;13176;51.140;6.290;2024-03-07T07:42:47;56.67;;;50.38;;
25231;SDS011;13176;51.140;6.290;2024-03-07T07:45:15;57.22;;;50.55;;
25231;SDS011;13176;51.140;6.290;2024-03-07T07:47:43;56.85;;;50.70;;
25231;SDS011;13176;51.140;6.290;2024-03-07T07:50:11;57.10;;;50.88;;
25231;SDS011;13176;51.140;6.290;2024-03-07T07:52:40;59.35;;;53.17;;
25231;SDS011;13176;51.140;6.290;2024-03-07T07:55:08;60.55;;;54.40;;
25231;SDS011;13176;51.140;6.290;2024-03-07T07:57:41;60.33;;;53.65;;
25231;SDS011;13176;51.140;6.290;2024-03-07T08:00:10;60.30;;;54.15;;
25231;SDS011;13176;51.140;6.290;2024-03-07T08:02:50;61.00;;;54.90;;
25231;SDS011;13176;51.140;6.290;2024-03-07T08:05:22;60.22;;;54.03;;
25231;SDS011;13176;51.140;6.290;2024-03-07T08:07:54;60.25;;;54.17;;
25231;SDS011;13176;51.140;6.290;2024-03-07T08:10:26;60.80;;;54.75;;
25231;SDS011;13176;51.140;6.290;2024-03-07T08:15:29;53.47;;;47.88;;
25231;SDS011;13176;51.140;6.290;2024-03-07T08:17:56;57.63;;;51.75;;
25231;SDS011;13176;51.140;6.290;2024-03-07T08:20:24;58.55;;;52.75;;
25231;SDS011;13176;51.140;6.290;2024-03-07T08:22:52;53.90;;;48.63;;
25231;SDS011;13176;51.140;6.290;2024-03-07T08:25:20;52.85;;;47.60;;
25231;SDS011;13176;51.140;6.290;2024-03-07T08:27:52;52.92;;;47.47;;
25231;SDS011;13176;51.140;6.290;2024-03-07T08:30:20;48.80;;;43.60;;
25231;SDS011;13176;51.140;6.290;2024-03-07T08:32:49;48.00;;;43.10;;
25231;SDS011;13176;51.140;6.290;2024-03-07T08:35:20;46.60;;;41.70;;
25231;SDS011;13176;51.140;6.290;2024-03-07T08:37:50;45.03;;;40.47;;
25231;SDS011;13176;51.140;6.290;2024-03-07T08:40:22;44.50;;;39.85;;
25231;SDS011;13176;51.140;6.290;2024-03-07T08:42:55;45.47;;;40.53;;
25231;SDS011;13176;51.140;6.290;2024-03-07T08:45:23;41.90;;;37.60;;
25231;SDS011;13176;51.140;6.290;2024-03-07T08:47:50;41.75;;;37.45;;
25231;SDS011;13176;51.140;6.290;2024-03-07T08:50:18;38.95;;;35.03;;
25231;SDS011;13176;51.140;6.290;2024-03-07T08:52:45;38.50;;;34.47;;
25231;SDS011;13176;51.140;6.290;2024-03-07T08:55:20;37.50;;;33.15;;
25231;SDS011;13176;51.140;6.290;2024-03-07T08:57:48;36.53;;;32.63;;
25231;SDS011;13176;51.140;6.290;2024-03-07T09:00:15;36.47;;;32.65;;
25231;SDS011;13176;51.140;6.290;2024-03-07T09:02:56;35.72;;;31.98;;
25231;SDS011;13176;51.140;6.290;2024-03-07T09:05:27;34.63;;;30.98;;
25231;SDS011;13176;51.140;6.290;2024-03-07T09:07:54;35.25;;;31.73;;
25231;SDS011;13176;51.140;6.290;2024-03-07T09:10:21;33.78;;;30.30;;
25231;SDS011;13176;51.140;6.290;2024-03-07T09:12:50;34.20;;;30.75;;
25231;SDS011;13176;51.140;6.290;2024-03-07T09:15:19;34.15;;;30.83;;
25231;SDS011;13176;51.140;6.290;2024-03-07T09:17:48;34.47;;;30.92;;
25231;SDS011;13176;51.140;6.290;2024-03-07T09:20:15;34.80;;;31.27;;
25231;SDS011;13176;51.140;6.290;2024-03-07T09:22:45;33.85;;;30.23;;
25231;SDS011;13176;51.140;6.290;2024-03-07T09:25:17;32.92;;;29.45;;
25231;SDS011;13176;51.140;6.290;2024-03-07T09:27:45;32.83;;;29.63;;
25231;SDS011;13176;51.140;6.290;2024-03-07T09:30:12;33.17;;;29.80;;
25231;SDS011;13176;51.140;6.290;2024-03-07T09:32:41;31.73;;;28.92;;
25231;SDS011;13176;51.140;6.290;2024-03-07T09:35:08;30.40;;;27.45;;
25231;SDS011;13176;51.140;6.290;2024-03-07T09:37:39;27.50;;;24.77;;
25231;SDS011;13176;51.140;6.290;2024-03-07T09:40:07;27.95;;;25.20;;
25231;SDS011;13176;51.140;6.290;2024-03-07T09:45:12;23.38;;;20.88;;
25231;SDS011;13176;51.140;6.290;2024-03-07T09:47:42;23.48;;;21.13;;
25231;SDS011;13176;51.140;6.290;2024-03-07T09:50:10;22.98;;;20.70;;
25231;SDS011;13176;51.140;6.290;2024-03-07T09:52:37;21.88;;;19.33;;
25231;SDS011;13176;51.140;6.290;2024-03-07T09:55:06;20.27;;;18.27;;
25231;SDS011;13176;51.140;6.290;2024-03-07T09:57:34;21.23;;;19.13;;
25231;SDS011;13176;51.140;6.290;2024-03-07T10:00:02;20.13;;;18.13;;
25231;SDS011;13176;51.140;6.290;2024-03-07T10:02:29;19.95;;;17.83;;
25231;SDS011;13176;51.140;6.290;2024-03-07T10:04:58;20.45;;;18.42;;
25231;SDS011;13176;51.140;6.290;2024-03-07T10:07:26;20.08;;;18.05;;
25231;SDS011;13176;51.140;6.290;2024-03-07T10:09:52;19.98;;;16.88;;
25231;SDS011;13176;51.140;6.290;2024-03-07T10:12:22;18.63;;;16.73;;
25231;SDS011;13176;51.140;6.290;2024-03-07T10:14:49;18.88;;;16.73;;
25231;SDS011;13176;51.140;6.290;2024-03-07T10:17:17;18.45;;;16.55;;
25231;SDS011;13176;51.140;6.290;2024-03-07T10:19:47;18.83;;;16.67;;
25231;SDS011;13176;51.140;6.290;2024-03-07T10:22:16;18.83;;;16.42;;
25231;SDS011;13176;51.140;6.290;2024-03-07T10:24:51;18.23;;;16.55;;
25231;SDS011;13176;51.140;6.290;2024-03-07T10:27:21;19.38;;;17.52;;
25231;SDS011;13176;51.140;6.290;2024-03-07T10:29:52;18.98;;;17.08;;
25231;SDS011;13176;51.140;6.290;2024-03-07T10:32:19;17.98;;;16.15;;
25231;SDS011;13176;51.140;6.290;2024-03-07T10:34:53;18.42;;;16.38;;
25231;SDS011;13176;51.140;6.290;2024-03-07T10:37:20;18.50;;;16.77;;
25231;SDS011;13176;51.140;6.290;2024-03-07T10:39:47;18.33;;;15.90;;
25231;SDS011;13176;51.140;6.290;2024-03-07T10:42:18;16.27;;;14.57;;
25231;SDS011;13176;51.140;6.290;2024-03-07T10:44:45;17.52;;;15.73;;
25231;SDS011;13176;51.140;6.290;2024-03-07T10:47:17;17.40;;;15.60;;
25231;SDS011;13176;51.140;6.290;2024-03-07T10:50:38;18.23;;;16.10;;
25231;SDS011;13176;51.140;6.290;2024-03-07T10:53:02;19.95;;;18.05;;
25231;SDS011;13176;51.140;6.290;2024-03-07T11:00:54;18.35;;;16.25;;
25231;SDS011;13176;51.140;6.290;2024-03-07T11:03:24;18.13;;;16.27;;
25231;SDS011;13176;51.140;6.290;2024-03-07T11:05:52;17.92;;;16.15;;
25231;SDS011;13176;51.140;6.290;2024-03-07T11:08:19;19.48;;;17.48;;
25231;SDS011;13176;51.140;6.290;2024-03-07T11:10:46;19.38;;;16.60;;
25231;SDS011;13176;51.140;6.290;2024-03-07T11:13:13;19.83;;;16.35;;
25231;SDS011;13176;51.140;6.290;2024-03-07T11:15:42;18.05;;;15.82;;
25231;SDS011;13176;51.140;6.290;2024-03-07T11:18:10;18.50;;;16.63;;
25231;SDS011;13176;51.140;6.290;2024-03-07T11:20:39;17.80;;;16.00;;
25231;SDS011;13176;51.140;6.290;2024-03-07T11:23:52;19.20;;;16.92;;
25231;SDS011;13176;51.140;6.290;2024-03-07T11:28:35;20.90;;;18.40;;
25231;SDS011;13176;51.140;6.290;2024-03-07T11:36:46;24.85;;;22.58;;
25231;SDS011;13176;51.140;6.290;2024-03-07T11:42:18;21.00;;;18.92;;
25231;SDS011;13176;51.140;6.290;2024-03-07T11:44:47;19.02;;;17.23;;
25231;SDS011;13176;51.140;6.290;2024-03-07T11:47:15;16.40;;;14.63;;
25231;SDS011;13176;51.140;6.290;2024-03-07T11:49:44;16.85;;;15.23;;
25231;SDS011;13176;51.140;6.290;2024-03-07T11:52:15;17.20;;;15.45;;
25231;SDS011;13176;51.140;6.290;2024-03-07T11:54:43;16.50;;;13.82;;
25231;SDS011;13176;51.140;6.290;2024-03-07T11:57:14;16.63;;;15.00;;
25231;SDS011;13176;51.140;6.290;2024-03-07T11:59:42;17.13;;;15.43;;
25231;SDS011;13176;51.140;6.290;2024-03-07T12:02:12;16.83;;;15.15;;
25231;SDS011;13176;51.140;6.290;2024-03-07T12:04:44;17.20;;;15.60;;
25231;SDS011;13176;51.140;6.290;2024-03-07T12:07:10;18.73;;;14.40;;
25231;SDS011;13176;51.140;6.290;2024-03-07T12:09:37;15.85;;;14.38;;
25231;SDS011;13176;51.140;6.290;2024-03-07T12:12:08;17.52;;;15.77;;
25231;SDS011;13176;51.140;6.290;2024-03-07T12:14:35;17.50;;;15.70;;
25231;SDS011;13176;51.140;6.290;2024-03-07T12:17:02;20.02;;;18.23;;
25231;SDS011;13176;51.140;6.290;2024-03-07T12:19:32;20.05;;;18.10;;
25231;SDS011;13176;51.140;6.290;2024-03-07T12:22:02;22.10;;;20.10;;
25231;SDS011;13176;51.140;6.290;2024-03-07T12:24:29;21.23;;;19.23;;
25231;SDS011;13176;51.140;6.290;2024-03-07T12:27:06;19.88;;;17.55;;
25231;SDS011;13176;51.140;6.290;2024-03-07T12:29:33;22.30;;;20.38;;
25231;SDS011;13176;51.140;6.290;2024-03-07T12:32:00;20.90;;;18.85;;
25231;SDS011;13176;51.140;6.290;2024-03-07T12:34:26;20.25;;;17.73;;
25231;SDS011;13176;51.140;6.290;2024-03-07T12:36:56;17.67;;;15.90;;
25231;SDS011;13176;51.140;6.290;2024-03-07T12:39:24;18.52;;;16.63;;
25231;SDS011;13176;51.140;6.290;2024-03-07T12:41:52;18.17;;;16.38;;
25231;SDS011;13176;51.140;6.290;2024-03-07T12:44:21;18.85;;;16.95;;
25231;SDS011;13176;51.140;6.290;2024-03-07T12:46:48;18.95;;;17.02;;
25231;SDS011;13176;51.140;6.290;2024-03-07T12:49:22;19.15;;;16.48;;
25231;SDS011;13176;51.140;6.290;2024-03-07T12:51:53;17.00;;;15.30;;
25231;SDS011;13176;51.140;6.290;2024-03-07T12:54:20;17.35;;;15.60;;
25231;SDS011;13176;51.140;6.290;2024-03-07T12:56:48;18.17;;;15.55;;
25231;SDS011;13176;51.140;6.290;2024-03-07T12:59:18;17.50;;;15.73;;
25231;SDS011;13176;51.140;6.290;2024-03-07T13:01:46;15.68;;;14.25;;
25231;SDS011;13176;51.140;6.290;2024-03-07T13:04:51;15.40;;;13.82;;
25231;SDS011;13176;51.140;6.290;2024-03-07T13:07:17;17.83;;;15.95;;
25231;SDS011;13176;51.140;6.290;2024-03-07T13:09:45;17.08;;;15.43;;
25231;SDS011;13176;51.140;6.290;2024-03-07T13:12:19;17.92;;;16.33;;
25231;SDS011;13176;51.140;6.290;2024-03-07T13:14:45;19.58;;;17.77;;
25231;SDS011;13176;51.140;6.290;2024-03-07T13:17:12;16.75;;;15.25;;
25231;SDS011;13176;51.140;6.290;2024-03-07T13:19:40;16.80;;;15.40;;
25231;SDS011;13176;51.140;6.290;2024-03-07T13:22:09;18.05;;;16.42;;
25231;SDS011;13176;51.140;6.290;2024-03-07T13:24:38;19.38;;;17.38;;
25231;SDS011;13176;51.140;6.290;2024-03-07T13:27:06;15.90;;;14.18;;
25231;SDS011;13176;51.140;6.290;2024-03-07T13:29:37;20.08;;;18.45;;
25231;SDS011;13176;51.140;6.290;2024-03-07T13:32:04;20.55;;;18.85;;
25231;SDS011;13176;51.140;6.290;2024-03-07T13:34:31;20.42;;;18.70;;
25231;SDS011;13176;51.140;6.290;2024-03-07T13:36:58;19.38;;;17.42;;
25231;SDS011;13176;51.140;6.290;2024-03-07T13:39:27;19.77;;;17.95;;
25231;SDS011;13176;51.140;6.290;2024-03-07T13:41:54;20.02;;;18.15;;
25231;SDS011;13176;51.140;6.290;2024-03-07T13:44:20;22.23;;;20.30;;
25231;SDS011;13176;51.140;6.290;2024-03-07T13:46:48;23.15;;;21.35;;
25231;SDS011;13176;51.140;6.290;2024-03-07T13:49:15;20.35;;;18.67;;
25231;SDS011;13176;51.140;6.290;2024-03-07T13:51:43;17.45;;;15.95;;
25231;SDS011;13176;51.140;6.290;2024-03-07T13:54:26;17.67;;;16.17;;
25231;SDS011;13176;51.140;6.290;2024-03-07T13:59:59;19.90;;;17.88;;
25231;SDS011;13176;51.140;6.290;2024-03-07T14:23:01;17.70;;;16.10;;
25231;SDS011;13176;51.140;6.290;2024-03-07T14:28:42;19.20;;;17.45;;
25231;SDS011;13176;51.140;6.290;2024-03-07T14:31:31;15.82;;;14.32;;
25231;SDS011;13176;51.140;6.290;2024-03-07T14:36:44;17.42;;;15.27;;
25231;SDS011;13176;51.140;6.290;2024-03-07T14:39:18;17.30;;;15.43;;
25231;SDS011;13176;51.140;6.290;2024-03-07T14:41:57;18.58;;;16.85;;
25231;SDS011;13176;51.140;6.290;2024-03-07T14:44:27;18.25;;;16.65;;
25231;SDS011;13176;51.140;6.290;2024-03-07T14:47:02;18.08;;;16.23;;
25231;SDS011;13176;51.140;6.290;2024-03-07T14:49:37;19.08;;;17.30;;
25231;SDS011;13176;51.140;6.290;2024-03-07T14:52:05;19.50;;;17.63;;
25231;SDS011;13176;51.140;6.290;2024-03-07T14:54:37;19.08;;;17.13;;
25231;SDS011;13176;51.140;6.290;2024-03-07T14:57:04;18.58;;;16.70;;
25231;SDS011;13176;51.140;6.290;2024-03-07T14:59:31;19.30;;;17.48;;
25231;SDS011;13176;51.140;6.290;2024-03-07T15:01:58;18.23;;;16.58;;
25231;SDS011;13176;51.140;6.290;2024-03-07T15:04:26;17.42;;;15.73;;
25231;SDS011;13176;51.140;6.290;2024-03-07T15:06:58;18.45;;;16.55;;
25231;SDS011;13176;51.140;6.290;2024-03-07T15:09:28;17.98;;;16.30;;
25231;SDS011;13176;51.140;6.290;2024-03-07T15:12:00;18.85;;;17.08;;
25231;SDS011;13176;51.140;6.290;2024-03-07T15:14:26;20.02;;;18.02;;
25231;SDS011;13176;51.140;6.290;2024-03-07T15:17:04;19.77;;;17.67;;
25231;SDS011;13176;51.140;6.290;2024-03-07T15:19:32;18.60;;;16.80;;
25231;SDS011;13176;51.140;6.290;2024-03-07T15:22:01;18.70;;;16.75;;
25231;SDS011;13176;51.140;6.290;2024-03-07T15:24:29;17.88;;;16.17;;